createdAt,value
2022-08-05T04:31:01.000Z,17.76
2022-08-05T04:31:59.343Z,17.81
2022-08-05T04:32:59.322Z,17.81
2022-08-05T04:34:18.577Z,17.78
2022-08-05T04:35:00.292Z,17.79
2022-08-05T04:36:10.667Z,17.82
2022-08-05T04:37:00.282Z,17.87
2022-08-05T04:38:02.663Z,17.87
2022-08-05T04:39:00.255Z,17.85
2022-08-05T04:39:59.222Z,17.81
2022-08-05T04:40:59.222Z,17.79
2022-08-05T04:41:59.202Z,17.74
2022-08-05T04:42:59.202Z,17.71
2022-08-05T04:44:09.407Z,17.70
2022-08-05T04:44:59.190Z,17.66
2022-08-05T04:45:59.159Z,17.62
2022-08-05T04:46:59.303Z,17.62
2022-08-05T04:47:59.128Z,17.66
2022-08-05T04:48:59.128Z,17.69
2022-08-05T04:50:02.759Z,17.70
2022-08-05T04:51:02.552Z,17.70
2022-08-05T04:52:00.552Z,17.66
2022-08-05T04:52:59.080Z,17.67
2022-08-05T04:53:59.048Z,17.59
2022-08-05T04:54:59.040Z,17.63
2022-08-05T04:56:33.959Z,17.67
2022-08-05T04:57:00.008Z,17.67
2022-08-05T04:57:59.018Z,17.66
2022-08-05T04:58:58.989Z,17.64
2022-08-05T04:59:59.070Z,17.64
2022-08-05T05:00:59.029Z,17.63
2022-08-05T05:02:08.231Z,17.70
2022-08-05T05:03:03.763Z,17.76
2022-08-05T05:03:58.951Z,17.85
2022-08-05T05:05:02.378Z,17.91
2022-08-05T05:06:39.152Z,18.00
2022-08-05T05:06:59.888Z,17.99
2022-08-05T05:08:01.517Z,17.94
2022-08-05T05:08:58.848Z,17.91
2022-08-05T05:09:58.840Z,17.92
2022-08-05T05:10:58.835Z,17.91
2022-08-05T05:12:02.862Z,17.97
2022-08-05T05:12:58.837Z,18.09
2022-08-05T05:13:58.787Z,18.15
2022-08-05T05:14:58.778Z,18.29
2022-08-05T05:16:02.303Z,18.37
2022-08-05T05:16:59.756Z,18.42
2022-08-05T05:17:58.951Z,18.50
2022-08-05T05:19:18.986Z,18.62
2022-08-05T05:19:59.719Z,18.67
2022-08-05T05:20:58.764Z,18.62
2022-08-05T05:21:58.696Z,18.55
2022-08-05T05:23:01.384Z,18.46
2022-08-05T05:24:02.221Z,18.43
2022-08-05T05:25:01.216Z,18.43
2022-08-05T05:25:58.627Z,18.44
2022-08-05T05:26:58.617Z,18.40
2022-08-05T05:27:58.709Z,18.40
2022-08-05T05:28:58.609Z,18.40
2022-08-05T05:30:04.624Z,18.39
2022-08-05T05:30:59.586Z,18.47
2022-08-05T05:31:58.548Z,18.58
2022-08-05T05:33:00.825Z,18.73
2022-08-05T05:34:01.661Z,18.83
2022-08-05T05:34:58.518Z,18.92
2022-08-05T05:35:58.517Z,18.92
2022-08-05T05:36:58.487Z,18.92
2022-08-05T05:38:00.178Z,18.79
2022-08-05T05:38:58.515Z,18.74
2022-08-05T05:39:58.469Z,18.67
2022-08-05T05:40:58.453Z,18.61
2022-08-05T05:41:58.426Z,18.55
2022-08-05T05:42:58.408Z,18.61
2022-08-05T05:44:00.315Z,18.59
2022-08-05T05:44:59.385Z,18.55
2022-08-05T05:45:58.374Z,18.50
2022-08-05T05:46:58.422Z,18.42
2022-08-05T05:48:05.542Z,18.37
2022-08-05T05:48:59.347Z,18.28
2022-08-05T05:50:01.836Z,18.18
2022-08-05T05:50:59.310Z,18.15
2022-08-05T05:51:59.288Z,18.18
2022-08-05T05:52:58.278Z,18.24
2022-08-05T05:53:59.840Z,18.31
2022-08-05T05:54:58.257Z,18.39
2022-08-05T05:56:00.636Z,18.43
2022-08-05T05:56:58.228Z,18.37
2022-08-05T05:57:58.230Z,18.31
2022-08-05T05:58:58.228Z,18.25
2022-08-05T05:59:59.198Z,18.24
2022-08-05T06:00:58.178Z,18.19
2022-08-05T06:01:59.173Z,18.19
2022-08-05T06:02:58.148Z,18.22
2022-08-05T06:04:01.712Z,18.27
2022-08-05T06:04:59.203Z,18.27
2022-08-05T06:05:58.109Z,18.25
2022-08-05T06:06:58.097Z,18.22
2022-08-05T06:08:01.932Z,18.18
2022-08-05T06:08:58.095Z,18.09
2022-08-05T06:10:01.387Z,18.07
2022-08-05T06:10:59.053Z,18.09
2022-08-05T06:11:59.094Z,18.10
2022-08-05T06:12:58.017Z,18.13
2022-08-05T06:13:58.017Z,18.10
2022-08-05T06:14:58.016Z,18.12
2022-08-05T06:16:28.839Z,18.13
2022-08-05T06:16:59.033Z,18.13
2022-08-05T06:17:57.968Z,18.19
2022-08-05T06:19:01.187Z,18.27
2022-08-05T06:19:59.582Z,18.24
2022-08-05T06:20:57.919Z,18.25
2022-08-05T06:21:57.909Z,18.24
2022-08-05T06:22:57.902Z,18.21
2022-08-05T06:23:57.878Z,18.27
2022-08-05T06:24:57.865Z,18.28
2022-08-05T06:26:12.583Z,18.24
2022-08-05T06:26:58.837Z,18.19
2022-08-05T06:28:12.137Z,18.17
2022-08-05T06:28:58.817Z,18.21
2022-08-05T06:30:04.338Z,18.22
2022-08-05T06:30:58.787Z,18.28
2022-08-05T06:31:57.798Z,18.28
2022-08-05T06:32:57.775Z,18.33
2022-08-05T06:34:06.985Z,18.29
2022-08-05T06:34:58.803Z,18.28
2022-08-05T06:36:03.380Z,18.29
2022-08-05T06:36:58.831Z,18.28
2022-08-05T06:37:59.583Z,18.29
2022-08-05T06:38:58.721Z,18.31
2022-08-05T06:39:57.677Z,18.31
2022-08-05T06:40:57.665Z,18.28
2022-08-05T06:41:58.946Z,18.33
2022-08-05T06:42:57.627Z,18.37
2022-08-05T06:44:00.567Z,18.34
2022-08-05T06:44:57.597Z,18.28
2022-08-05T06:46:03.563Z,18.25
2022-08-05T06:46:58.575Z,18.15
2022-08-05T06:48:46.857Z,18.12
2022-08-05T06:48:59.274Z,18.07
2022-08-05T06:50:01.566Z,18.02
2022-08-05T06:50:58.537Z,17.89
2022-08-05T06:51:57.519Z,17.89
2022-08-05T06:52:58.554Z,17.97
2022-08-05T06:53:57.497Z,17.97
2022-08-05T06:54:57.467Z,18.06
2022-08-05T06:55:57.458Z,18.00
2022-08-05T06:57:56.713Z,18.00
2022-08-05T06:58:11.684Z,18.00
2022-08-05T06:58:58.447Z,17.99
2022-08-05T06:59:58.312Z,18.00
2022-08-05T07:00:57.408Z,17.94
2022-08-05T07:01:57.385Z,17.89
2022-08-05T07:02:57.359Z,17.92
2022-08-05T07:03:57.357Z,17.91
2022-08-05T07:04:57.347Z,17.94
2022-08-05T07:05:57.339Z,17.85
2022-08-05T07:06:57.320Z,17.84
2022-08-05T07:07:57.306Z,17.81
2022-08-05T07:08:59.067Z,17.76
2022-08-05T07:09:58.451Z,17.71
2022-08-05T07:10:58.216Z,17.64
2022-08-05T07:12:00.239Z,17.57
2022-08-05T07:12:57.242Z,17.51
2022-08-05T07:14:00.060Z,17.46
2022-08-05T07:14:57.227Z,17.48
2022-08-05T07:16:01.441Z,17.46
2022-08-05T07:17:58.331Z,17.51
2022-08-05T07:18:07.084Z,17.62
2022-08-05T07:18:58.158Z,17.63
2022-08-05T07:20:31.369Z,17.71
2022-08-05T07:20:58.128Z,17.73
2022-08-05T07:22:00.962Z,17.71
2022-08-05T07:22:57.108Z,17.74
2022-08-05T07:23:57.108Z,17.84
2022-08-05T07:24:57.091Z,17.81
2022-08-05T07:25:57.171Z,17.82
2022-08-05T07:26:57.056Z,17.85
2022-08-05T07:28:02.272Z,17.89
2022-08-05T07:28:58.027Z,17.99
2022-08-05T07:30:27.919Z,18.00
2022-08-05T07:30:58.006Z,17.97
2022-08-05T07:31:56.997Z,17.95
2022-08-05T07:32:57.389Z,17.97
2022-08-05T07:33:56.997Z,18.00
2022-08-05T07:34:57.767Z,18.04
2022-08-05T07:36:19.675Z,17.99
2022-08-05T07:36:57.924Z,18.00
2022-08-05T07:37:56.919Z,18.03
2022-08-05T07:38:56.937Z,18.02
2022-08-05T07:40:03.978Z,18.02
2022-08-05T07:41:01.481Z,18.03
2022-08-05T07:42:13.452Z,18.06
2022-08-05T07:42:57.858Z,18.02
2022-08-05T07:43:57.110Z,18.06
2022-08-05T07:44:56.850Z,18.06
2022-08-05T07:45:58.490Z,18.12
2022-08-05T07:46:56.817Z,18.15
2022-08-05T07:47:56.807Z,18.12
2022-08-05T07:49:01.679Z,18.09
2022-08-05T07:49:57.768Z,18.10
2022-08-05T07:50:56.747Z,18.06
2022-08-05T07:51:56.726Z,18.03
2022-08-05T07:52:56.717Z,17.97
2022-08-05T07:53:56.706Z,17.84
2022-08-05T07:54:56.717Z,17.76
2022-08-05T07:56:06.330Z,17.57
2022-08-05T07:57:02.422Z,17.43
2022-08-05T07:58:03.211Z,17.32
2022-08-05T07:58:59.354Z,17.32
2022-08-05T07:59:56.638Z,17.32
2022-08-05T08:00:56.670Z,17.33
2022-08-05T08:01:57.652Z,17.41
2022-08-05T08:03:13.337Z,17.44
2022-08-05T08:03:57.567Z,17.43
2022-08-05T08:04:56.567Z,17.44
2022-08-05T08:05:56.567Z,17.47
2022-08-05T08:06:56.536Z,17.47
2022-08-05T08:08:00.201Z,17.47
2022-08-05T08:08:56.539Z,17.48
2022-08-05T08:09:56.521Z,17.50
2022-08-05T08:10:56.499Z,17.50
2022-08-05T08:11:59.037Z,17.50
2022-08-05T08:12:58.526Z,17.50
2022-08-05T08:14:00.839Z,17.55
2022-08-05T08:14:56.436Z,17.53
2022-08-05T08:16:34.667Z,17.43
2022-08-05T08:16:57.415Z,17.38
2022-08-05T08:17:56.397Z,17.38
2022-08-05T08:18:57.396Z,17.40
2022-08-05T08:20:21.653Z,17.44
2022-08-05T08:21:02.939Z,17.50
2022-08-05T08:21:57.346Z,17.57
2022-08-05T08:22:56.337Z,17.66
2022-08-05T08:24:01.044Z,17.69
2022-08-05T08:25:03.374Z,17.71
2022-08-05T08:26:00.069Z,17.76
2022-08-05T08:26:56.277Z,17.82
2022-08-05T08:27:56.265Z,17.87
2022-08-05T08:28:59.792Z,17.92
2022-08-05T08:30:05.938Z,17.92
2022-08-05T08:30:57.236Z,17.92
2022-08-05T08:31:56.206Z,17.92
2022-08-05T08:32:56.204Z,17.95
2022-08-05T08:33:56.390Z,17.97
2022-08-05T08:34:56.175Z,17.97
2022-08-05T08:36:18.469Z,17.91
2022-08-05T08:37:03.144Z,17.84
2022-08-05T08:37:57.147Z,17.71
2022-08-05T08:38:57.067Z,17.70
2022-08-05T08:39:56.154Z,17.73
2022-08-05T08:40:56.119Z,17.76
2022-08-05T08:41:59.980Z,17.78
2022-08-05T08:42:57.266Z,17.81
2022-08-05T08:45:24.352Z,17.78
2022-08-05T08:45:25.337Z,17.78
2022-08-05T08:45:57.055Z,17.73
2022-08-05T08:46:56.016Z,17.70
2022-08-05T08:48:11.702Z,17.69
2022-08-05T08:49:07.964Z,17.70
2022-08-05T08:50:23.069Z,17.66
2022-08-05T08:51:07.605Z,17.59
2022-08-05T08:52:03.147Z,17.59
2022-08-05T08:52:56.936Z,17.57
2022-08-05T08:53:55.949Z,17.55
2022-08-05T08:54:55.926Z,17.54
2022-08-05T08:56:02.586Z,17.53
2022-08-05T08:56:56.911Z,17.47
2022-08-05T08:57:58.154Z,17.43
2022-08-05T08:58:55.886Z,17.47
2022-08-05T08:59:56.030Z,17.53
2022-08-05T09:00:55.903Z,17.54
2022-08-05T09:01:57.614Z,17.62
2022-08-05T09:02:56.816Z,17.54
2022-08-05T09:03:57.537Z,17.51
2022-08-05T09:05:16.283Z,17.55
2022-08-05T09:06:07.318Z,17.57
2022-08-05T09:06:56.775Z,17.59
2022-08-05T09:07:57.536Z,17.55
2022-08-05T09:08:55.735Z,17.53
2022-08-05T09:09:55.716Z,17.51
2022-08-05T09:10:55.721Z,17.47
2022-08-05T09:12:01.258Z,17.43
2022-08-05T09:12:56.685Z,17.48
2022-08-05T09:14:01.264Z,17.55
2022-08-05T09:15:05.872Z,17.63
2022-08-05T09:15:56.636Z,17.64
2022-08-05T09:16:55.635Z,17.66
2022-08-05T09:17:55.607Z,17.62
2022-08-05T09:18:55.671Z,17.59
2022-08-05T09:20:02.871Z,17.62
2022-08-05T09:20:56.575Z,17.62
2022-08-05T09:22:22.751Z,17.57
2022-08-05T09:23:01.613Z,17.63
2022-08-05T09:24:02.089Z,17.57
2022-08-05T09:24:56.531Z,17.57
2022-08-05T09:26:02.077Z,17.55
2022-08-05T09:26:56.514Z,17.57
2022-08-05T09:28:03.982Z,17.53
2022-08-05T09:28:56.493Z,17.46
2022-08-05T09:29:55.465Z,17.38
2022-08-05T09:30:55.455Z,17.40
2022-08-05T09:32:41.814Z,17.46
2022-08-05T09:32:56.761Z,17.48
2022-08-05T09:33:55.424Z,17.50
2022-08-05T09:34:55.396Z,17.48
2022-08-05T09:35:55.375Z,17.59
2022-08-05T09:36:59.808Z,17.71
2022-08-05T09:38:17.363Z,17.78
2022-08-05T09:38:56.371Z,17.67
2022-08-05T09:39:56.042Z,17.71
2022-08-05T09:40:55.317Z,17.70
2022-08-05T09:41:56.225Z,17.79
2022-08-05T09:42:55.303Z,17.89
2022-08-05T09:43:55.433Z,17.97
2022-08-05T09:44:56.748Z,18.03
2022-08-05T09:46:06.728Z,18.04
2022-08-05T09:46:57.995Z,18.10
2022-08-05T09:47:56.689Z,18.13
2022-08-05T09:49:07.637Z,18.17
2022-08-05T09:50:02.543Z,18.17
2022-08-05T09:50:56.198Z,18.15
2022-08-05T09:51:55.165Z,18.15
2022-08-05T09:52:55.205Z,18.15
2022-08-05T09:53:59.235Z,18.19
2022-08-05T09:54:56.134Z,18.18
2022-08-05T09:56:02.921Z,18.25
2022-08-05T09:56:56.118Z,18.33
2022-08-05T09:57:58.702Z,18.39
2022-08-05T09:58:56.084Z,18.44
2022-08-05T09:59:55.065Z,18.46
2022-08-05T10:00:55.056Z,18.54
2022-08-05T10:01:57.983Z,18.61
2022-08-05T10:02:57.995Z,18.68
2022-08-05T10:03:59.194Z,18.79
2022-08-05T10:04:55.006Z,18.72
2022-08-05T10:05:54.997Z,18.68
2022-08-05T10:06:59.556Z,18.70
2022-08-05T10:08:36.053Z,18.68
2022-08-05T10:08:55.976Z,18.70
2022-08-05T10:10:14.005Z,18.67
2022-08-05T10:10:55.946Z,18.61
2022-08-05T10:11:54.914Z,18.57
2022-08-05T10:12:54.918Z,18.58
2022-08-05T10:13:55.012Z,18.58
2022-08-05T10:14:54.876Z,18.62
2022-08-05T10:15:54.868Z,18.62
2022-08-05T10:16:54.856Z,18.64
2022-08-05T10:17:57.596Z,18.57
2022-08-05T10:18:54.832Z,18.55
2022-08-05T10:20:04.240Z,18.55
2022-08-05T10:20:55.810Z,18.59
2022-08-05T10:21:54.785Z,18.58
2022-08-05T10:22:54.794Z,18.65
2022-08-05T10:23:59.467Z,18.68
2022-08-05T10:24:55.754Z,18.73
2022-08-05T10:25:54.737Z,18.76
2022-08-05T10:26:54.745Z,18.86
2022-08-05T10:28:13.857Z,18.92
2022-08-05T10:28:56.432Z,18.94
2022-08-05T10:30:41.096Z,18.87
2022-08-05T10:32:52.922Z,18.83
2022-08-05T10:32:55.399Z,18.91
2022-08-05T10:33:01.746Z,18.87
2022-08-05T10:33:55.663Z,18.92
2022-08-05T10:34:54.625Z,18.99
2022-08-05T10:35:59.202Z,18.92
2022-08-05T10:36:55.597Z,18.97
2022-08-05T10:37:54.585Z,19.13
2022-08-05T10:38:54.625Z,19.29
2022-08-05T10:40:03.064Z,19.43
2022-08-05T10:40:55.547Z,19.48
2022-08-05T10:41:59.081Z,19.63
2022-08-05T10:42:55.565Z,19.75
2022-08-05T10:43:54.521Z,19.78
2022-08-05T10:45:01.578Z,19.86
2022-08-05T10:45:54.479Z,19.84
2022-08-05T10:46:55.462Z,20.05
2022-08-05T10:48:29.127Z,20.35
2022-08-05T10:48:58.045Z,20.99
2022-08-05T10:50:32.276Z,21.20
2022-08-05T10:50:55.410Z,21.17
2022-08-05T10:51:59.857Z,21.11
2022-08-05T10:52:58.787Z,21.14
2022-08-05T10:53:54.467Z,21.24
2022-08-05T10:54:56.067Z,21.30
2022-08-05T10:56:05.054Z,21.57
2022-08-05T10:56:55.330Z,21.63
2022-08-05T10:57:54.318Z,21.60
2022-08-05T10:58:54.320Z,21.66
2022-08-05T11:00:04.323Z,21.63
2022-08-05T11:01:03.048Z,21.61
2022-08-05T11:02:05.410Z,21.69
2022-08-05T11:02:55.284Z,21.61
2022-08-05T11:03:54.267Z,21.71
2022-08-05T11:04:54.229Z,21.74
2022-08-05T11:05:54.212Z,21.81
2022-08-05T11:06:55.202Z,21.76
2022-08-05T11:08:02.875Z,21.83
2022-08-05T11:08:55.191Z,21.98
2022-08-05T11:10:09.499Z,22.31
2022-08-05T11:11:00.934Z,22.52
2022-08-05T11:11:55.139Z,22.46
2022-08-05T11:12:55.251Z,22.17
2022-08-05T11:13:57.563Z,21.91
2022-08-05T11:15:19.140Z,22.02
2022-08-05T11:16:00.729Z,23.47
2022-08-05T11:16:57.255Z,24.39
2022-08-05T11:18:09.688Z,24.44
2022-08-05T11:18:55.073Z,24.07
2022-08-05T11:20:17.608Z,24.04
2022-08-05T11:20:55.031Z,23.98
2022-08-05T11:21:54.011Z,24.10
2022-08-05T11:22:57.998Z,24.08
2022-08-05T11:24:04.679Z,24.31
2022-08-05T11:25:16.574Z,24.64
2022-08-05T11:26:05.970Z,24.73
2022-08-05T11:26:54.952Z,24.60
2022-08-05T11:28:00.955Z,24.39
2022-08-05T11:28:54.942Z,24.01
2022-08-05T11:29:53.912Z,23.90
2022-08-05T11:30:53.903Z,23.80
2022-08-05T11:32:00.320Z,23.65
2022-08-05T11:32:54.880Z,23.43
2022-08-05T11:33:53.873Z,23.49
2022-08-05T11:34:54.323Z,23.20
2022-08-05T11:36:08.212Z,23.12
2022-08-05T11:36:54.834Z,23.23
2022-08-05T11:38:28.357Z,23.20
2022-08-05T11:38:55.429Z,23.38
2022-08-05T11:40:00.359Z,23.46
2022-08-05T11:40:58.739Z,23.62
2022-08-05T11:42:02.292Z,23.72
2022-08-05T11:42:54.745Z,23.86
2022-08-05T11:44:04.491Z,24.13
2022-08-05T11:44:54.728Z,24.31
2022-08-05T11:46:15.310Z,24.32
2022-08-05T11:47:10.257Z,24.42
2022-08-05T11:47:55.135Z,25.05
2022-08-05T11:48:53.685Z,25.46
2022-08-05T11:49:53.656Z,25.50
2022-08-05T11:50:53.645Z,25.20
2022-08-05T11:51:53.634Z,25.30
2022-08-05T11:52:57.529Z,25.74
2022-08-05T11:53:53.653Z,25.91
2022-08-05T11:54:55.033Z,26.21
2022-08-05T11:55:53.575Z,26.72
2022-08-05T11:56:53.579Z,27.20
2022-08-05T11:58:10.521Z,27.54
2022-08-05T11:58:54.577Z,27.82
2022-08-05T11:59:53.579Z,28.36
2022-08-05T12:00:53.530Z,28.66
2022-08-05T12:01:53.506Z,28.25
2022-08-05T12:02:53.517Z,27.35
2022-08-05T12:03:55.808Z,27.21
2022-08-05T12:04:59.662Z,27.36
2022-08-05T12:05:54.463Z,27.19
2022-08-05T12:06:53.458Z,26.62
2022-08-05T12:08:09.257Z,26.09
2022-08-05T12:08:54.417Z,25.67
2022-08-05T12:09:53.868Z,25.13
2022-08-05T12:10:53.398Z,24.79
2022-08-05T12:11:53.378Z,24.52
2022-08-05T12:12:59.550Z,24.38
2022-08-05T12:13:54.359Z,24.34
2022-08-05T12:14:53.370Z,24.07
2022-08-05T12:15:55.894Z,23.86
2022-08-05T12:16:53.328Z,23.68
2022-08-05T12:18:04.136Z,23.62
2022-08-05T12:18:54.299Z,23.60
2022-08-05T12:20:27.016Z,23.72
2022-08-05T12:20:54.277Z,23.83
2022-08-05T12:21:53.257Z,23.97
2022-08-05T12:22:53.249Z,24.23
2022-08-05T12:23:53.231Z,24.24
2022-08-05T12:24:53.230Z,24.35
2022-08-05T12:25:53.304Z,24.37
2022-08-05T12:26:53.238Z,24.29
2022-08-05T12:27:53.645Z,24.35
2022-08-05T12:28:53.170Z,24.54
2022-08-05T12:29:53.352Z,25.01
2022-08-05T12:30:53.150Z,25.00
2022-08-05T12:31:54.220Z,24.54
2022-08-05T12:32:53.128Z,24.05
2022-08-05T12:33:53.102Z,23.50
2022-08-05T12:34:53.109Z,23.04
2022-08-05T12:35:53.114Z,22.87
2022-08-05T12:36:53.146Z,22.84
2022-08-05T12:37:53.224Z,22.72
2022-08-05T12:38:53.050Z,22.62
2022-08-05T12:39:53.941Z,22.64
2022-08-05T12:40:53.020Z,22.72
2022-08-05T12:41:57.963Z,23.15
2022-08-05T12:42:53.991Z,23.27
2022-08-05T12:43:53.021Z,23.46
2022-08-05T12:44:52.981Z,23.70
2022-08-05T12:45:52.953Z,23.70
2022-08-05T12:46:52.942Z,23.82
2022-08-05T12:48:17.156Z,23.95
2022-08-05T12:48:53.931Z,24.17
2022-08-05T12:50:03.698Z,24.77
2022-08-05T12:50:53.891Z,24.90
2022-08-05T12:52:12.421Z,24.91
2022-08-05T12:52:53.869Z,25.22
2022-08-05T12:53:55.659Z,25.13
2022-08-05T12:54:52.852Z,24.95
2022-08-05T12:55:52.834Z,24.87
2022-08-05T12:56:52.813Z,25.87
2022-08-05T12:58:51.005Z,26.94
2022-08-05T12:59:00.958Z,27.61
2022-08-05T13:01:56.959Z,28.09
2022-08-05T13:01:59.786Z,28.36
2022-08-05T13:02:01.517Z,28.41
2022-08-05T13:02:55.571Z,27.67
2022-08-05T13:03:52.723Z,26.99
2022-08-05T13:04:54.735Z,26.36
2022-08-05T13:05:52.702Z,25.68
2022-08-05T13:06:52.693Z,24.97
2022-08-05T13:07:59.310Z,24.41
2022-08-05T13:08:53.664Z,23.90
2022-08-05T13:09:56.683Z,23.64
2022-08-05T13:10:52.644Z,23.15
2022-08-05T13:12:01.255Z,22.71
2022-08-05T13:12:58.028Z,22.38
2022-08-05T13:14:05.926Z,22.23
2022-08-05T13:15:05.518Z,22.12
2022-08-05T13:15:53.575Z,22.07
2022-08-05T13:16:52.566Z,21.99
2022-08-05T13:17:52.556Z,21.85
2022-08-05T13:18:52.543Z,21.71
2022-08-05T13:19:53.120Z,21.60
2022-08-05T13:20:52.525Z,21.57
2022-08-05T13:21:55.980Z,21.54
2022-08-05T13:22:52.486Z,21.32
2022-08-05T13:23:52.479Z,21.27
2022-08-05T13:24:58.051Z,21.23
2022-08-05T13:25:59.150Z,21.24
2022-08-05T13:26:53.443Z,21.27
2022-08-05T13:27:52.456Z,21.38
2022-08-05T13:28:52.494Z,21.36
2022-08-05T13:30:32.328Z,21.30
2022-08-05T13:30:53.676Z,21.30
2022-08-05T13:32:04.200Z,21.38
2022-08-05T13:32:53.365Z,21.41
2022-08-05T13:34:21.626Z,21.44
2022-08-05T13:34:53.337Z,21.48
2022-08-05T13:35:52.327Z,21.48
2022-08-05T13:36:52.315Z,21.54
2022-08-05T13:37:55.399Z,21.60
2022-08-05T13:38:52.286Z,21.57
2022-08-05T13:40:16.401Z,21.56
2022-08-05T13:40:53.369Z,21.60
2022-08-05T13:41:52.246Z,21.61
2022-08-05T13:42:55.707Z,21.60
2022-08-05T13:43:54.492Z,21.64
2022-08-05T13:44:52.207Z,21.71
2022-08-05T13:45:52.206Z,21.78
2022-08-05T13:47:04.548Z,21.90
2022-08-05T13:48:09.848Z,21.91
2022-08-05T13:48:57.520Z,21.98
2022-08-05T13:49:53.147Z,22.02
2022-08-05T13:50:52.145Z,22.13
2022-08-05T13:51:52.117Z,22.23
2022-08-05T13:52:52.096Z,22.31
2022-08-05T13:53:52.095Z,22.34
2022-08-05T13:54:53.331Z,22.49
2022-08-05T13:55:58.878Z,22.56
2022-08-05T13:56:53.047Z,22.65
2022-08-05T13:57:52.206Z,22.83
2022-08-05T13:58:53.415Z,22.94
2022-08-05T13:59:59.310Z,23.08
2022-08-05T14:00:53.015Z,23.19
2022-08-05T14:01:59.151Z,23.57
2022-08-05T14:02:53.061Z,24.50
2022-08-05T14:03:51.970Z,25.71
2022-08-05T14:04:52.038Z,25.68
2022-08-05T14:06:25.195Z,25.53
2022-08-05T14:07:12.157Z,25.67
2022-08-05T14:08:00.389Z,26.84
2022-08-05T14:08:52.899Z,27.69
2022-08-05T14:09:51.887Z,27.99
2022-08-05T14:10:51.868Z,28.29
2022-08-05T14:12:03.950Z,27.70
2022-08-05T14:12:54.634Z,26.49
2022-08-05T14:13:55.004Z,26.04
2022-08-05T14:14:52.820Z,25.44
2022-08-05T14:16:05.681Z,25.07
2022-08-05T14:16:55.396Z,24.88
2022-08-05T14:17:51.788Z,24.68
2022-08-05T14:18:51.770Z,24.52
2022-08-05T14:19:55.361Z,24.53
2022-08-05T14:20:55.114Z,24.38
2022-08-05T14:22:09.232Z,24.31
2022-08-05T14:22:52.717Z,24.02
2022-08-05T14:23:51.716Z,23.87
2022-08-05T14:24:51.690Z,23.90
2022-08-05T14:25:53.800Z,23.87
2022-08-05T14:27:15.560Z,23.95
2022-08-05T14:27:52.659Z,23.82
2022-08-05T14:28:52.132Z,23.95
2022-08-05T14:29:52.160Z,24.23
2022-08-05T14:30:53.445Z,24.57
2022-08-05T14:32:03.805Z,24.91
2022-08-05T14:32:52.603Z,24.80
2022-08-05T14:33:59.316Z,24.76
2022-08-05T14:34:52.570Z,25.16
2022-08-05T14:35:54.000Z,26.20
2022-08-05T14:36:51.552Z,26.31
2022-08-05T14:37:55.434Z,26.54
2022-08-05T14:38:51.523Z,26.01
2022-08-05T14:39:57.013Z,26.17
2022-08-05T14:40:52.489Z,26.15
2022-08-05T14:42:15.877Z,25.67
2022-08-05T14:42:52.463Z,25.35
2022-08-05T14:43:58.810Z,25.09
2022-08-05T14:44:52.442Z,24.90
2022-08-05T14:45:51.436Z,24.76
2022-08-05T14:46:51.425Z,24.54
2022-08-05T14:48:05.556Z,24.34
2022-08-05T14:48:52.382Z,24.08
2022-08-05T14:49:59.505Z,24.14
2022-08-05T14:50:52.363Z,24.08
2022-08-05T14:51:51.374Z,24.13
2022-08-05T14:52:56.911Z,24.52
2022-08-05T14:54:06.598Z,24.94
2022-08-05T14:54:52.741Z,25.83
2022-08-05T14:55:52.648Z,26.49
2022-08-05T14:56:51.712Z,26.92
2022-08-05T14:57:54.691Z,27.41
2022-08-05T14:58:53.192Z,27.98
2022-08-05T14:59:51.325Z,28.21
2022-08-05T15:00:59.199Z,28.80
2022-08-05T15:01:53.885Z,29.44
2022-08-05T15:02:51.265Z,28.90
2022-08-05T15:03:51.214Z,28.28
2022-08-05T15:04:51.186Z,27.89
2022-08-05T15:06:07.695Z,27.26
2022-08-05T15:06:52.185Z,26.58
2022-08-05T15:08:08.834Z,25.97
2022-08-05T15:09:01.210Z,25.52
2022-08-05T15:09:54.545Z,25.15
2022-08-05T15:10:51.117Z,24.83
2022-08-05T15:11:53.660Z,25.22
2022-08-05T15:13:00.842Z,25.15
2022-08-05T15:13:52.086Z,25.28
2022-08-05T15:14:51.066Z,25.38
2022-08-05T15:15:54.910Z,25.13
2022-08-05T15:16:52.058Z,25.91
2022-08-05T15:17:51.203Z,26.40
2022-08-05T15:18:51.027Z,26.77
2022-08-05T15:19:51.000Z,27.04
2022-08-05T15:20:51.035Z,27.35
2022-08-05T15:21:50.968Z,27.33
2022-08-05T15:22:54.559Z,27.50
2022-08-05T15:23:50.954Z,28.01
2022-08-05T15:24:50.937Z,28.03
2022-08-05T15:25:55.867Z,28.04
2022-08-05T15:26:51.919Z,27.76
2022-08-05T15:27:52.526Z,27.50
2022-08-05T15:28:51.972Z,27.10
2022-08-05T15:29:50.878Z,27.20
2022-08-05T15:30:52.879Z,27.94
2022-08-05T15:31:52.906Z,28.36
2022-08-05T15:32:50.858Z,28.51
2022-08-05T15:34:05.014Z,28.69
2022-08-05T15:34:51.817Z,28.70
2022-08-05T15:35:50.807Z,29.11
2022-08-05T15:36:50.790Z,29.49
2022-08-05T15:38:09.209Z,29.53
2022-08-05T15:40:41.646Z,29.28
2022-08-05T15:40:59.774Z,29.50
2022-08-05T15:41:20.310Z,29.56
2022-08-05T15:41:57.591Z,29.47
2022-08-05T15:42:56.615Z,28.44
2022-08-05T15:43:51.849Z,28.17
2022-08-05T15:44:50.690Z,28.44
2022-08-05T15:46:00.616Z,28.82
2022-08-05T15:46:52.677Z,28.91
2022-08-05T15:47:50.669Z,28.77
2022-08-05T15:48:54.608Z,28.82
2022-08-05T15:49:56.761Z,29.11
2022-08-05T15:50:51.622Z,29.20
2022-08-05T15:52:04.402Z,28.66
2022-08-05T15:52:54.973Z,27.21
2022-08-05T15:53:50.584Z,26.47
2022-08-05T15:54:50.573Z,26.12
2022-08-05T15:56:02.157Z,25.94
2022-08-05T15:56:51.552Z,25.53
2022-08-05T15:57:50.543Z,25.13
2022-08-05T15:58:50.523Z,24.79
2022-08-05T15:59:53.992Z,24.42
2022-08-05T16:01:11.549Z,24.26
2022-08-05T16:01:53.023Z,23.97
2022-08-05T16:02:50.521Z,23.80
2022-08-05T16:03:51.059Z,24.24
2022-08-05T16:04:50.455Z,24.04
2022-08-05T16:05:52.735Z,24.14
2022-08-05T16:06:51.424Z,24.73
2022-08-05T16:07:50.415Z,24.91
2022-08-05T16:08:51.075Z,25.28
2022-08-05T16:09:50.387Z,25.72
2022-08-05T16:10:50.374Z,26.17
2022-08-05T16:11:53.067Z,26.43
2022-08-05T16:12:50.365Z,26.55
2022-08-05T16:13:50.334Z,26.84
2022-08-05T16:14:50.326Z,27.14
2022-08-05T16:15:50.305Z,27.47
2022-08-05T16:16:50.300Z,27.43
2022-08-05T16:17:57.941Z,27.51
2022-08-05T16:18:51.863Z,27.66
2022-08-05T16:20:04.442Z,27.64
2022-08-05T16:20:51.268Z,27.61
2022-08-05T16:22:00.382Z,27.54
2022-08-05T16:22:51.246Z,27.53
2022-08-05T16:23:54.141Z,27.59
2022-08-05T16:24:52.266Z,27.53
2022-08-05T16:25:50.187Z,27.58
2022-08-05T16:26:51.176Z,27.58
2022-08-05T16:28:02.121Z,27.28
2022-08-05T16:28:51.159Z,27.05
2022-08-05T16:29:51.203Z,27.14
2022-08-05T16:30:50.336Z,27.21
2022-08-05T16:31:57.420Z,27.26
2022-08-05T16:32:51.119Z,27.23
2022-08-05T16:33:50.087Z,27.23
2022-08-05T16:34:50.782Z,27.04
2022-08-05T16:35:52.972Z,26.94
2022-08-05T16:36:50.058Z,26.91
2022-08-05T16:38:02.549Z,26.77
2022-08-05T16:38:54.656Z,26.59
2022-08-05T16:40:05.943Z,26.27
2022-08-05T16:40:55.330Z,26.29
2022-08-05T16:42:13.689Z,26.43
2022-08-05T16:42:51.030Z,26.36
2022-08-05T16:43:56.315Z,26.31
2022-08-05T16:46:06.487Z,26.39
2022-08-05T16:47:01.774Z,26.08
2022-08-05T16:48:03.029Z,25.71
2022-08-05T16:49:00.760Z,25.84
2022-08-05T16:50:00.732Z,26.12
2022-08-05T16:51:00.739Z,26.15
2022-08-05T16:52:00.713Z,26.27
2022-08-05T16:53:01.640Z,26.36
2022-08-05T16:54:05.862Z,26.40
2022-08-05T16:55:01.683Z,26.20
2022-08-05T16:56:00.783Z,25.90
2022-08-05T16:57:00.644Z,25.72
2022-08-05T16:58:01.599Z,25.82
2022-08-05T16:59:01.447Z,25.94
2022-08-05T17:00:06.026Z,26.09
2022-08-05T17:01:01.614Z,26.17
2022-08-05T17:02:01.625Z,26.08
2022-08-05T17:03:00.592Z,26.09
2022-08-05T17:04:00.607Z,25.86
2022-08-05T17:05:00.545Z,25.84
2022-08-05T17:06:00.580Z,26.01
2022-08-05T17:07:01.513Z,26.11
2022-08-05T17:08:00.698Z,26.12
2022-08-05T17:09:00.525Z,25.84
2022-08-05T17:10:00.533Z,25.83
2022-08-05T17:11:00.485Z,25.94
2022-08-05T17:12:00.484Z,25.99
2022-08-05T17:13:00.446Z,26.01
2022-08-05T17:14:06.196Z,25.94
2022-08-05T17:15:01.416Z,25.94
2022-08-05T17:16:27.559Z,25.80
2022-08-05T17:17:01.395Z,25.53
2022-08-05T17:18:00.388Z,25.35
2022-08-05T17:19:00.387Z,25.19
2022-08-05T17:20:00.358Z,25.17
2022-08-05T17:21:00.357Z,25.05
2022-08-05T17:22:00.336Z,25.06
2022-08-05T17:23:00.329Z,25.06
2022-08-05T17:24:06.128Z,24.97